createdAt,value
2023-04-01T00:02:34.080Z,2.13
2023-04-01T00:05:40.633Z,2.22
2023-04-01T00:08:47.575Z,2.13
2023-04-01T00:11:51.567Z,2.13
2023-04-01T00:14:55.628Z,2.20
2023-04-01T00:18:00.141Z,2.28
2023-04-01T00:21:05.626Z,2.22
2023-04-01T00:24:09.824Z,1.95
2023-04-01T00:27:13.864Z,2.67
2023-04-01T00:30:20.560Z,2.63
2023-04-01T00:33:24.960Z,2.03
2023-04-01T00:36:30.854Z,2.70
2023-04-01T00:39:35.193Z,2.60
2023-04-01T00:42:40.880Z,1.85
2023-04-01T00:45:49.693Z,2.35
2023-04-01T00:48:55.234Z,2.25
2023-04-01T00:52:03.708Z,2.47
2023-04-01T00:55:09.514Z,2.50
2023-04-01T00:58:16.721Z,1.80
2023-04-01T01:01:20.673Z,2.15
2023-04-01T01:04:25.882Z,2.38
2023-04-01T01:07:33.437Z,2.30
2023-04-01T01:10:39.097Z,1.88
2023-04-01T01:13:44.366Z,2.03
2023-04-01T01:16:49.927Z,2.45
2023-04-01T01:20:00.658Z,2.20
2023-04-01T01:23:18.498Z,2.28
2023-04-01T01:26:42.761Z,3.05
2023-04-01T01:30:04.212Z,2.65
2023-04-01T01:33:24.242Z,1.95
2023-04-01T01:36:32.063Z,2.85
2023-04-01T01:39:37.983Z,2.42
2023-04-01T01:42:43.356Z,2.75
2023-04-01T01:45:49.744Z,2.35
2023-04-01T01:48:53.922Z,2.42
2023-04-01T01:51:58.917Z,2.25
2023-04-01T01:55:03.315Z,1.98
2023-04-01T01:58:20.187Z,2.22
2023-04-01T02:01:27.578Z,2.72
2023-04-01T02:04:34.548Z,2.85
2023-04-01T02:07:41.803Z,3.10
2023-04-01T02:10:48.846Z,2.75
2023-04-01T02:13:56.138Z,2.58
2023-04-01T02:17:01.121Z,2.38
2023-04-01T02:20:07.428Z,2.58
2023-04-01T02:23:13.482Z,2.83
2023-04-01T02:26:17.634Z,2.50
2023-04-01T02:29:27.573Z,2.58
2023-04-01T02:32:33.448Z,2.58
2023-04-01T02:35:39.697Z,2.50
2023-04-01T02:38:47.439Z,2.50
2023-04-01T02:41:51.311Z,2.53
2023-04-01T02:44:55.092Z,2.50
2023-04-01T02:47:59.790Z,2.50
2023-04-01T02:51:04.894Z,2.78
2023-04-01T02:54:11.204Z,2.95
2023-04-01T02:57:15.535Z,2.67
2023-04-01T03:00:20.190Z,2.22
2023-04-01T03:03:24.977Z,2.05
2023-04-01T03:06:28.690Z,2.30
2023-04-01T03:09:34.136Z,2.45
2023-04-01T03:12:41.168Z,2.25
2023-04-01T03:15:45.781Z,2.25
2023-04-01T03:18:50.409Z,2.35
2023-04-01T03:21:56.443Z,2.38
2023-04-01T03:25:01.636Z,1.90
2023-04-01T03:28:06.192Z,2.45
2023-04-01T03:31:14.123Z,2.60
2023-04-01T03:34:24.293Z,2.25
2023-04-01T03:37:27.917Z,2.10
2023-04-01T03:40:34.130Z,2.17
2023-04-01T03:43:38.157Z,2.22
2023-04-01T03:46:43.569Z,2.45
2023-04-01T03:49:47.131Z,2.17
2023-04-01T03:52:52.426Z,2.47
2023-04-01T03:55:58.060Z,2.45
2023-04-01T03:59:04.916Z,1.95
2023-04-01T04:02:08.420Z,2.05
2023-04-01T04:05:14.147Z,1.70
2023-04-01T04:08:22.481Z,1.77
2023-04-01T04:11:28.219Z,1.85
2023-04-01T04:14:33.605Z,1.77
2023-04-01T04:17:38.674Z,2.00
2023-04-01T04:20:46.711Z,2.47
2023-04-01T04:23:51.541Z,2.17
2023-04-01T04:26:58.622Z,2.30
2023-04-01T04:30:03.901Z,2.60
2023-04-01T04:33:08.228Z,2.45
2023-04-01T04:36:12.265Z,2.58
2023-04-01T04:39:16.216Z,2.35
2023-04-01T04:42:22.793Z,1.95
2023-04-01T04:45:31.588Z,2.38
2023-04-01T04:48:35.490Z,2.17
2023-04-01T04:51:39.395Z,2.55
2023-04-01T04:54:44.161Z,2.33
2023-04-01T04:57:49.458Z,2.40
2023-04-01T05:00:53.377Z,2.38
2023-04-01T05:04:05.540Z,0.93
2023-04-01T05:07:09.257Z,0.52
2023-04-01T05:10:13.094Z,0.60
2023-04-01T05:13:18.512Z,0.50
2023-04-01T05:16:24.872Z,0.43
2023-04-01T05:19:28.988Z,0.60
2023-04-01T05:22:32.772Z,0.60
2023-04-01T05:25:39.566Z,0.73
2023-04-01T05:28:45.217Z,0.40
2023-04-01T05:31:53.153Z,0.63
2023-04-01T05:34:57.298Z,0.85
2023-04-01T05:38:01.450Z,0.40
2023-04-01T05:41:05.685Z,0.60
2023-04-01T05:44:15.810Z,0.52
2023-04-01T05:47:40.762Z,0.63
2023-04-01T05:50:44.469Z,0.50
2023-04-01T05:53:49.189Z,0.80
2023-04-01T05:56:53.346Z,0.77
2023-04-01T06:00:00.165Z,0.60
2023-04-01T06:03:03.954Z,0.57
2023-04-01T06:06:09.912Z,0.47
2023-04-01T06:09:18.640Z,0.68
2023-04-01T06:12:34.847Z,0.50
2023-04-01T06:15:45.068Z,0.60
2023-04-01T06:19:14.256Z,0.60
2023-04-01T06:22:36.432Z,0.55
2023-04-01T06:25:46.666Z,0.70
2023-04-01T06:28:59.675Z,0.45
2023-04-01T06:32:13.531Z,0.50
2023-04-01T06:35:25.932Z,0.75
2023-04-01T06:38:45.212Z,0.60
2023-04-01T06:42:08.815Z,0.70
2023-04-01T06:45:25.999Z,0.45
2023-04-01T06:49:09.766Z,0.55
2023-04-01T06:52:39.410Z,0.60
2023-04-01T06:56:14.553Z,0.43
2023-04-01T06:59:42.075Z,0.50
2023-04-01T07:02:48.548Z,0.55
2023-04-01T07:05:54.521Z,0.60
2023-04-01T07:09:02.871Z,0.40
2023-04-01T07:12:36.360Z,0.57
2023-04-01T07:15:49.115Z,0.40
2023-04-01T07:18:55.761Z,0.50
2023-04-01T07:22:06.309Z,0.40
2023-04-01T07:25:34.641Z,0.43
2023-04-01T07:29:12.920Z,0.43
2023-04-01T07:32:23.874Z,0.43
2023-04-01T07:35:29.545Z,0.50
2023-04-01T07:38:37.109Z,0.50
2023-04-01T07:41:48.147Z,0.30
2023-04-01T07:44:56.861Z,0.40
2023-04-01T07:48:14.393Z,0.40
2023-04-01T07:51:20.103Z,0.40
2023-04-01T07:54:31.093Z,0.50
2023-04-01T07:57:43.705Z,0.43
2023-04-01T08:00:51.427Z,0.30
2023-04-01T08:04:20.546Z,0.47
2023-04-01T08:07:27.104Z,0.22
2023-04-01T08:10:51.542Z,0.50
2023-04-01T08:14:29.199Z,0.70
2023-04-01T08:17:52.215Z,0.60
2023-04-01T08:21:00.147Z,0.63
2023-04-01T08:24:11.649Z,0.47
2023-04-01T08:27:25.109Z,0.55
2023-04-01T08:30:43.532Z,0.60
2023-04-01T08:33:56.192Z,0.40
2023-04-01T08:37:02.955Z,0.50
2023-04-01T08:40:19.414Z,0.63
2023-04-01T08:43:41.240Z,0.40
2023-04-01T08:47:00.362Z,0.40
2023-04-01T08:50:22.888Z,0.50
2023-04-01T08:53:47.249Z,0.60
2023-04-01T08:56:56.866Z,0.65
2023-04-01T09:00:11.110Z,0.43
2023-04-01T09:03:40.996Z,0.50
2023-04-01T09:06:52.495Z,0.60
2023-04-01T09:10:06.171Z,0.50
2023-04-01T09:13:28.719Z,0.40
2023-04-01T09:16:47.857Z,0.50
2023-04-01T09:20:02.745Z,0.50
2023-04-01T09:23:21.088Z,0.45
2023-04-01T09:26:34.813Z,0.47
2023-04-01T09:29:50.288Z,0.50
2023-04-01T09:33:24.607Z,0.50
2023-04-01T09:36:39.330Z,0.50
2023-04-01T09:39:45.429Z,0.32
2023-04-01T09:42:59.596Z,0.32
2023-04-01T09:46:23.805Z,0.30
2023-04-01T09:49:43.436Z,0.30
2023-04-01T09:52:54.353Z,0.43
2023-04-01T09:56:30.230Z,0.60
2023-04-01T10:00:14.884Z,0.70
2023-04-01T10:04:00.405Z,0.63
2023-04-01T10:07:42.552Z,0.43
2023-04-01T10:11:14.017Z,0.60
2023-04-01T10:14:41.468Z,0.50
2023-04-01T10:17:54.492Z,0.50
2023-04-01T10:21:13.506Z,0.50
2023-04-01T10:24:28.824Z,0.43
2023-04-01T10:27:49.754Z,0.45
2023-04-01T10:31:51.060Z,0.43
2023-04-01T10:35:08.436Z,0.40
2023-04-01T10:38:23.947Z,0.30
2023-04-01T10:41:48.151Z,0.50
2023-04-01T10:45:39.501Z,0.40
2023-04-01T10:48:56.061Z,0.60
2023-04-01T10:52:15.952Z,0.90
2023-04-01T10:55:50.076Z,0.60
2023-04-01T10:59:50.313Z,0.50
2023-04-01T11:03:33.983Z,0.50
2023-04-01T11:07:18.270Z,0.50
2023-04-01T11:10:33.950Z,0.52
2023-04-01T11:13:53.984Z,0.52
2023-04-01T11:17:11.301Z,0.60
2023-04-01T11:20:33.285Z,0.60
2023-04-01T11:24:02.253Z,0.80
2023-04-01T11:27:21.210Z,0.80
2023-04-01T11:30:32.990Z,0.52
2023-04-01T11:33:39.816Z,0.82
2023-04-01T11:36:50.880Z,0.82
2023-04-01T11:40:08.421Z,1.02
2023-04-01T11:43:50.679Z,1.10
2023-04-01T11:47:21.226Z,1.30
2023-04-01T11:50:33.420Z,0.80
2023-04-01T11:53:44.913Z,1.00
2023-04-01T11:57:01.784Z,1.77
2023-04-01T12:00:33.999Z,1.10
2023-04-01T12:03:45.850Z,1.20
2023-04-01T12:06:56.659Z,1.20
2023-04-01T12:10:07.467Z,1.02
2023-04-01T12:13:19.560Z,1.30
2023-04-01T12:16:32.886Z,0.93
2023-04-01T12:19:43.903Z,1.15
2023-04-01T12:22:53.090Z,1.20
2023-04-01T12:26:03.775Z,1.10
2023-04-01T12:29:21.559Z,1.20
2023-04-01T12:32:29.060Z,1.20
2023-04-01T12:35:46.466Z,0.80
2023-04-01T12:39:14.313Z,1.38
2023-04-01T12:42:25.079Z,1.23
2023-04-01T12:45:34.585Z,0.90
2023-04-01T12:48:57.287Z,1.70
2023-04-01T12:52:07.370Z,1.38
2023-04-01T12:55:22.109Z,1.40
2023-04-01T12:58:44.112Z,0.95
2023-04-01T13:01:55.493Z,1.30
2023-04-01T13:05:07.915Z,1.35
2023-04-01T13:08:30.821Z,0.68
2023-04-01T13:11:39.651Z,1.30
2023-04-01T13:14:53.497Z,1.35
2023-04-01T13:18:01.997Z,0.90
2023-04-01T13:21:11.020Z,1.17
2023-04-01T13:24:24.561Z,1.10
2023-04-01T13:27:31.654Z,1.25
2023-04-01T13:30:39.170Z,1.45
2023-04-01T13:33:46.229Z,0.82
2023-04-01T13:36:58.480Z,1.42
2023-04-01T13:40:17.360Z,1.20
2023-04-01T13:43:27.537Z,1.00
2023-04-01T13:46:51.085Z,1.00
2023-04-01T13:50:21.105Z,0.82
2023-04-01T13:53:42.085Z,1.35
2023-04-01T13:56:53.500Z,1.33
2023-04-01T14:00:06.813Z,1.40
2023-04-01T14:03:24.779Z,1.48
2023-04-01T14:06:34.738Z,1.30
2023-04-01T14:10:08.288Z,1.50
2023-04-01T14:13:18.572Z,1.23
2023-04-01T14:16:37.331Z,1.40
2023-04-01T14:19:54.666Z,1.75
2023-04-01T14:23:16.191Z,1.67
2023-04-01T14:26:54.227Z,1.65
2023-04-01T14:30:07.474Z,2.17
2023-04-01T14:33:21.357Z,1.33
2023-04-01T14:36:31.918Z,1.70
2023-04-01T14:40:05.626Z,1.52
2023-04-01T14:43:19.660Z,1.75
2023-04-01T14:46:33.785Z,1.50
2023-04-01T14:49:39.565Z,1.33
2023-04-01T14:52:45.249Z,1.63
2023-04-01T14:55:52.401Z,1.77
2023-04-01T14:59:00.514Z,1.63
2023-04-01T15:02:11.817Z,1.77
2023-04-01T15:05:28.460Z,1.77
2023-04-01T15:08:34.286Z,1.98
2023-04-01T15:11:43.933Z,1.23
2023-04-01T15:14:57.394Z,1.83
2023-04-01T15:18:07.620Z,1.65
2023-04-01T15:21:17.126Z,1.63
2023-04-01T15:24:24.457Z,1.48
2023-04-01T15:27:35.230Z,1.02
2023-04-01T15:30:41.258Z,1.35
2023-04-01T15:33:51.395Z,1.25
2023-04-01T15:37:00.613Z,1.27
2023-04-01T15:40:09.012Z,1.80
2023-04-01T15:43:23.149Z,2.00
2023-04-01T15:46:33.315Z,1.85
2023-04-01T15:49:41.919Z,1.63
2023-04-01T15:52:47.040Z,1.45
2023-04-01T15:55:52.988Z,1.50
2023-04-01T15:59:02.401Z,2.00
2023-04-01T16:02:18.246Z,1.60
2023-04-01T16:05:41.555Z,1.92
2023-04-01T16:08:54.644Z,1.55
2023-04-01T16:12:07.609Z,1.80
2023-04-01T16:15:18.447Z,1.63
2023-04-01T16:18:42.148Z,2.00
2023-04-01T16:21:53.046Z,2.33
2023-04-01T16:24:59.091Z,1.58
2023-04-01T16:28:20.910Z,1.67
2023-04-01T16:31:32.090Z,1.65
2023-04-01T16:34:38.967Z,1.55
2023-04-01T16:37:49.701Z,1.83
2023-04-01T16:41:00.105Z,1.73
2023-04-01T16:44:14.289Z,1.52
2023-04-01T16:47:22.358Z,1.83
2023-04-01T16:50:27.371Z,1.52
2023-04-01T16:53:39.469Z,1.63
2023-04-01T16:56:47.226Z,1.80
2023-04-01T17:00:01.842Z,1.85
2023-04-01T17:03:07.870Z,1.58
2023-04-01T17:06:32.047Z,1.65
2023-04-01T17:10:02.761Z,2.05
2023-04-01T17:13:31.433Z,2.03
2023-04-01T17:16:52.337Z,1.95
2023-04-01T17:20:08.196Z,2.17
2023-04-01T17:23:15.709Z,1.67
2023-04-01T17:26:34.462Z,1.60
2023-04-01T17:29:43.510Z,1.70
2023-04-01T17:32:54.076Z,1.35
2023-04-01T17:36:01.763Z,1.98
2023-04-01T17:39:19.170Z,1.15
2023-04-01T17:42:28.883Z,1.48
2023-04-01T17:45:35.431Z,1.70
2023-04-01T17:48:44.997Z,1.58
2023-04-01T17:51:55.712Z,1.33
2023-04-01T17:55:03.746Z,2.03
2023-04-01T17:58:16.517Z,0.98
2023-04-01T18:01:26.716Z,1.15
2023-04-01T18:04:54.179Z,1.38
2023-04-01T18:08:07.322Z,1.70
2023-04-01T18:11:16.361Z,1.83
2023-04-01T18:14:33.631Z,1.98
2023-04-01T18:17:44.858Z,1.85
2023-04-01T18:20:55.402Z,1.83
2023-04-01T18:24:02.886Z,1.27
2023-04-01T18:27:16.406Z,1.58
2023-04-01T18:30:28.988Z,1.83
2023-04-01T18:33:35.211Z,0.95
2023-04-01T18:36:42.425Z,1.40
2023-04-01T18:39:50.745Z,1.17
2023-04-01T18:43:00.658Z,1.20
2023-04-01T18:46:12.803Z,1.48
2023-04-01T18:49:19.129Z,1.83
2023-04-01T18:52:28.623Z,1.58
2023-04-01T18:55:34.653Z,1.50
2023-04-01T18:58:49.504Z,1.60
2023-04-01T19:02:02.995Z,1.50
2023-04-01T19:05:08.747Z,1.83
2023-04-01T19:08:18.532Z,1.38
2023-04-01T19:11:28.216Z,1.50
2023-04-01T19:14:41.167Z,1.50
2023-04-01T19:17:54.115Z,1.40
2023-04-01T19:21:00.836Z,1.80
2023-04-01T19:24:47.175Z,1.25
2023-04-01T19:28:29.309Z,1.52
2023-04-01T19:31:43.114Z,0.73
2023-04-01T19:34:56.891Z,1.08
2023-04-01T19:38:02.301Z,1.05
2023-04-01T19:41:12.645Z,1.77
2023-04-01T19:44:24.308Z,1.25
2023-04-01T19:47:39.515Z,1.23
2023-04-01T19:50:49.132Z,1.50
2023-04-01T19:53:56.897Z,1.30
2023-04-01T19:57:05.082Z,1.30
2023-04-01T20:00:10.843Z,2.20
2023-04-01T20:03:18.891Z,1.30
2023-04-01T20:06:25.698Z,1.95
2023-04-01T20:09:50.589Z,1.30
2023-04-01T20:13:00.957Z,0.93
2023-04-01T20:16:07.069Z,1.55
2023-04-01T20:19:12.637Z,1.30
2023-04-01T20:23:01.415Z,2.80
2023-04-01T20:26:10.887Z,0.60
2023-04-01T20:29:30.640Z,1.73
2023-04-01T20:32:43.450Z,1.60
2023-04-01T20:35:53.283Z,1.60
2023-04-01T20:39:05.956Z,1.90
2023-04-01T20:42:26.220Z,2.80
2023-04-01T20:45:33.518Z,2.53
2023-04-01T20:48:43.913Z,1.63
2023-04-01T20:51:50.003Z,1.40
2023-04-01T20:55:02.601Z,1.52
2023-04-01T20:58:18.279Z,1.25
2023-04-01T21:01:32.479Z,1.70
2023-04-01T21:04:46.266Z,1.95
2023-04-01T21:07:54.365Z,1.90
2023-04-01T21:11:04.294Z,1.65
2023-04-01T21:14:31.351Z,1.67
2023-04-01T21:17:45.664Z,1.50
2023-04-01T21:20:59.175Z,1.38
2023-04-01T21:24:11.694Z,1.40
2023-04-01T21:27:20.698Z,1.20
2023-04-01T21:30:41.396Z,0.95
2023-04-01T21:33:52.090Z,1.13
2023-04-01T21:37:02.552Z,1.00
2023-04-01T21:40:28.064Z,1.33
2023-04-01T21:43:45.676Z,0.95
2023-04-01T21:47:02.829Z,0.90
2023-04-01T21:50:21.979Z,1.10
2023-04-01T21:53:44.167Z,0.80
2023-04-01T21:57:09.164Z,1.00
2023-04-01T22:00:25.222Z,1.00
2023-04-01T22:17:30.563Z,0.55
2023-04-01T22:20:37.926Z,1.00
2023-04-01T22:23:49.302Z,0.77
2023-04-01T22:26:55.134Z,0.90
2023-04-01T22:30:07.901Z,0.80
2023-04-01T22:33:15.988Z,0.98
2023-04-01T22:36:31.426Z,0.80
2023-04-01T22:39:49.405Z,1.00
2023-04-01T22:42:56.560Z,1.50
2023-04-01T22:46:09.503Z,1.27
2023-04-01T22:49:17.878Z,0.90
2023-04-01T22:52:30.298Z,0.82
2023-04-01T22:55:38.720Z,0.95
2023-04-01T22:58:59.192Z,0.90
2023-04-01T23:02:05.898Z,0.98
2023-04-01T23:05:12.946Z,0.75
2023-04-01T23:08:43.241Z,1.23
2023-04-01T23:11:49.932Z,0.88
2023-04-01T23:14:55.245Z,0.70
2023-04-01T23:18:06.666Z,0.80
2023-04-01T23:21:17.207Z,0.73
2023-04-01T23:24:23.797Z,0.90
2023-04-01T23:27:31.615Z,0.60
2023-04-01T23:30:52.985Z,0.90
2023-04-01T23:33:59.246Z,1.00
2023-04-01T23:37:08.138Z,1.02
2023-04-01T23:40:15.757Z,0.88
2023-04-01T23:43:25.651Z,0.70
2023-04-01T23:46:29.534Z,0.73
2023-04-01T23:49:37.342Z,0.98
2023-04-01T23:52:44.914Z,1.17
2023-04-01T23:55:48.986Z,0.75
2023-04-01T23:58:57.781Z,0.65
